Time;durP1;ratioP1;P1;durP2;ratioP2;P2;SDS_P1;SDS_P2;PMS_P1;PMS_P2;Temp;Humidity;BMP_temperature;BMP_pressure;BME280_temperature;BME280_humidity;BME280_pressure;Samples;Min_cycle;Max_cycle;Signal;HPM_P1;HPM_P2
2022/01/10 00:01:33;;;;;;;;;;;2.20;99.90;;;;;;5047505;28;20262;-70
2022/01/10 00:03:59;;;;;;;;;;;2.30;99.90;;;;;;5040555;28;19913;-70
2022/01/10 00:06:24;;;;;;;;;;;2.30;99.90;;;;;;5029687;28;19914;-69
2022/01/10 00:08:50;;;;;;;;;;;2.20;99.90;;;;;;5032009;28;19917;-71
2022/01/10 00:11:15;;;;;;;;;;;2.10;99.90;;;;;;5033174;28;20026;-69
2022/01/10 00:13:41;;;;;;;;;;;2.10;99.90;;;;;;5047308;28;20223;-69
2022/01/10 00:16:06;;;;;;;;;;;2.10;99.90;;;;;;5049668;28;19913;-68
2022/01/10 00:18:32;;;;;;;;;;;2.10;99.90;;;;;;5037208;28;19913;-68
2022/01/10 00:20:57;;;;;;;;;;;2.10;99.90;;;;;;5027299;28;19959;-70
2022/01/10 00:23:22;;;;;;;;;;;2.20;99.90;;;;;;5027981;28;20007;-70
2022/01/10 00:25:48;;;;;;;;;;;2.00;99.90;;;;;;5032326;28;20141;-71
2022/01/10 00:28:13;;;;;;;;;;;2.00;99.90;;;;;;5028467;28;19913;-70
2022/01/10 00:30:39;;;;;;;;;;;2.00;99.90;;;;;;5023164;28;19949;-72
2022/01/10 00:33:04;;;;;;;;;;;2.00;99.90;;;;;;5027463;28;19920;-71
2022/01/10 00:35:30;;;;;;;;;;;2.00;99.90;;;;;;5025416;28;20363;-71
2022/01/10 00:37:55;;;;;;;;;;;1.90;99.90;;;;;;5026184;28;19913;-72
2022/01/10 00:40:21;;;;;;;;;;;1.80;99.90;;;;;;5040269;28;19916;-68
2022/01/10 00:42:54;;;;;;;;;;;1.90;99.90;;;;;;5045653;28;19958;-69
2022/01/10 00:45:23;;;;;;;;;;;1.90;99.90;;;;;;5033689;28;19921;-71
2022/01/10 00:47:49;;;;;;;;;;;1.80;99.90;;;;;;5025666;28;19924;-70
2022/01/10 00:50:15;;;;;;;;;;;1.70;99.90;;;;;;5025086;28;19920;-71
2022/01/10 00:52:40;;;;;;;;;;;1.70;99.90;;;;;;5026894;28;19909;-69
2022/01/10 00:55:06;;;;;;;;;;;1.70;99.90;;;;;;5031671;28;19913;-71
2022/01/10 00:57:32;;;;;;;;;;;1.60;99.90;;;;;;5046079;28;19913;-70
2022/01/10 00:59:59;;;;;;;;;;;1.60;99.90;;;;;;5046052;28;19916;-74
2022/01/10 01:02:27;;;;;;;;;;;1.70;99.90;;;;;;5028531;28;19924;-70
2022/01/10 01:04:54;;;;;;;;;;;1.80;99.90;;;;;;5027128;28;20389;-70
2022/01/10 01:07:19;;;;;;;;;;;2.00;99.90;;;;;;5025927;28;19921;-70
2022/01/10 01:09:52;;;;;;;;;;;2.00;99.90;;;;;;5025515;28;19917;-71
2022/01/10 01:12:30;;;;;;;;;;;2.00;99.90;;;;;;5024756;28;19917;-71
2022/01/10 01:15:07;;;;;;;;;;;2.00;99.90;;;;;;5043647;28;20336;-70
2022/01/10 01:17:35;;;;;;;;;;;1.90;99.90;;;;;;5026683;28;19913;-69
2022/01/10 01:20:09;;;;;;;;;;;2.00;99.90;;;;;;5031019;28;20368;-70
2022/01/10 01:25:19;;;;;;;;;;;1.80;99.90;;;;;;5028741;28;19939;-73
2022/01/10 01:27:45;;;;;;;;;;;1.80;99.90;;;;;;5029753;28;19913;-71
2022/01/10 01:30:11;;;;;;;;;;;1.80;99.90;;;;;;5029418;28;19924;-71
2022/01/10 01:32:37;;;;;;;;;;;2.00;99.90;;;;;;5017596;28;19910;-69
2022/01/10 01:35:06;;;;;;;;;;;2.10;99.90;;;;;;5016029;28;19931;-70
2022/01/10 01:37:32;;;;;;;;;;;2.00;99.90;;;;;;5033479;28;19921;-71
2022/01/10 01:39:58;;;;;;;;;;;2.00;99.90;;;;;;5028029;28;20225;-69
2022/01/10 01:42:36;;;;;;;;;;;2.10;99.90;;;;;;5018486;28;20003;-71
2022/01/10 01:45:03;;;;;;;;;;;2.10;99.90;;;;;;5025491;28;19917;-71
2022/01/10 01:47:29;;;;;;;;;;;2.20;99.90;;;;;;5025221;28;20451;-72
2022/01/10 01:49:56;;;;;;;;;;;2.20;99.90;;;;;;5033145;28;20416;-71
2022/01/10 01:52:22;;;;;;;;;;;2.20;99.90;;;;;;5044237;28;20283;-71
2022/01/10 01:54:47;;;;;;;;;;;2.20;99.90;;;;;;5045225;28;20342;-70
2022/01/10 01:57:13;;;;;;;;;;;2.30;99.90;;;;;;5044210;28;19922;-70
2022/01/10 01:59:38;;;;;;;;;;;2.20;99.90;;;;;;5045686;28;20231;-70
2022/01/10 02:02:04;;;;;;;;;;;2.20;99.90;;;;;;5046589;28;19969;-70
2022/01/10 02:04:29;;;;;;;;;;;2.20;99.90;;;;;;5031593;28;19913;-68
2022/01/10 02:06:55;;;;;;;;;;;2.30;99.90;;;;;;5045885;28;19913;-69
2022/01/10 02:09:20;;;;;;;;;;;2.30;99.90;;;;;;5050389;28;19931;-69
2022/01/10 02:11:46;;;;;;;;;;;2.40;99.90;;;;;;5030827;28;20393;-70
2022/01/10 02:14:11;;;;;;;;;;;2.40;99.90;;;;;;5028991;28;19913;-70
2022/01/10 02:16:43;;;;;;;;;;;2.40;99.90;;;;;;5025670;28;19940;-71
2022/01/10 02:19:09;;;;;;;;;;;2.40;99.90;;;;;;5025063;28;19917;-73
2022/01/10 02:21:35;;;;;;;;;;;2.40;99.90;;;;;;5026013;28;20293;-70
2022/01/10 02:24:01;;;;;;;;;;;2.50;99.90;;;;;;5027533;28;20194;-68
2022/01/10 02:26:26;;;;;;;;;;;2.50;99.90;;;;;;5041297;28;19992;-70
2022/01/10 02:28:52;;;;;;;;;;;2.50;99.90;;;;;;5048007;28;19920;-71
2022/01/10 02:31:17;;;;;;;;;;;2.40;99.90;;;;;;5043229;28;19921;-75
2022/01/10 02:33:43;;;;;;;;;;;2.40;99.90;;;;;;5031153;28;19953;-71
2022/01/10 02:36:27;;;;;;;;;;;2.40;99.90;;;;;;5031315;28;19924;-73
2022/01/10 02:38:53;;;;;;;;;;;2.40;99.90;;;;;;5045562;28;19920;-68
2022/01/10 02:41:45;;;;;;;;;;;2.50;99.90;;;;;;5034107;28;20298;-69
2022/01/10 02:44:14;;;;;;;;;;;2.40;99.90;;;;;;5005994;28;20525;-71
2022/01/10 02:46:40;;;;;;;;;;;2.50;99.90;;;;;;5028486;28;19963;-70
2022/01/10 02:49:10;;;;;;;;;;;2.60;99.90;;;;;;5033735;28;19980;-71
2022/01/10 02:51:35;;;;;;;;;;;2.60;99.90;;;;;;5038197;28;19924;-67
2022/01/10 02:54:01;;;;;;;;;;;2.60;99.90;;;;;;5030275;28;19910;-71
2022/01/10 02:56:26;;;;;;;;;;;2.60;99.90;;;;;;5048188;28;19978;-70
2022/01/10 02:58:52;;;;;;;;;;;2.60;99.90;;;;;;5052162;28;19916;-70
2022/01/10 03:01:17;;;;;;;;;;;2.70;99.90;;;;;;5052980;28;20600;-70
2022/01/10 03:03:43;;;;;;;;;;;2.60;99.90;;;;;;5040794;28;19943;-71
2022/01/10 03:06:08;;;;;;;;;;;2.50;99.90;;;;;;5040638;28;19913;-70
2022/01/10 03:08:34;;;;;;;;;;;2.60;99.90;;;;;;5037280;28;19996;-74
2022/01/10 03:11:00;;;;;;;;;;;2.60;99.90;;;;;;5050152;28;20297;-71
2022/01/10 03:13:26;;;;;;;;;;;2.60;99.90;;;;;;5057627;28;19959;-69
2022/01/10 03:15:51;;;;;;;;;;;2.60;99.90;;;;;;5059384;28;19921;-68
2022/01/10 03:18:17;;;;;;;;;;;2.60;99.90;;;;;;5024950;28;19920;-68
2022/01/10 03:20:42;;;;;;;;;;;2.70;99.90;;;;;;5033062;28;19952;-71
2022/01/10 03:23:07;;;;;;;;;;;2.70;99.90;;;;;;5036233;28;19959;-69
2022/01/10 03:25:33;;;;;;;;;;;2.80;99.90;;;;;;5035556;28;20304;-69
2022/01/10 03:27:59;;;;;;;;;;;2.70;99.90;;;;;;5034727;28;19967;-71
2022/01/10 03:30:26;;;;;;;;;;;2.80;99.90;;;;;;5029322;28;19932;-70
2022/01/10 03:32:52;;;;;;;;;;;2.80;99.90;;;;;;5010398;28;20267;-69
2022/01/10 03:35:18;;;;;;;;;;;2.80;99.90;;;;;;5028305;28;19924;-69
2022/01/10 03:37:43;;;;;;;;;;;2.90;99.90;;;;;;5028091;28;19921;-70
2022/01/10 03:40:09;;;;;;;;;;;2.90;99.90;;;;;;5026722;28;19917;-71
2022/01/10 03:42:35;;;;;;;;;;;2.90;99.90;;;;;;5026997;28;19967;-70
2022/01/10 03:45:01;;;;;;;;;;;2.90;99.90;;;;;;5027030;28;19956;-71
2022/01/10 03:47:26;;;;;;;;;;;2.90;99.90;;;;;;5038577;28;19971;-71
2022/01/10 03:49:52;;;;;;;;;;;2.80;99.90;;;;;;5025955;28;19975;-71
2022/01/10 03:52:17;;;;;;;;;;;2.90;99.90;;;;;;5021140;28;19913;-68
2022/01/10 03:54:43;;;;;;;;;;;2.80;99.90;;;;;;5046182;28;19958;-72
2022/01/10 03:57:10;;;;;;;;;;;2.90;99.90;;;;;;5025296;28;20407;-71
2022/01/10 03:59:35;;;;;;;;;;;2.90;99.90;;;;;;5036164;28;19921;-69
2022/01/10 04:02:01;;;;;;;;;;;3.00;99.90;;;;;;5031892;28;19917;-70
2022/01/10 04:04:26;;;;;;;;;;;3.00;99.90;;;;;;5041270;28;20010;-69
2022/01/10 04:06:52;;;;;;;;;;;3.00;99.90;;;;;;5026979;28;19913;-69
2022/01/10 04:09:19;;;;;;;;;;;3.10;99.90;;;;;;5025778;28;19909;-69
2022/01/10 04:11:45;;;;;;;;;;;3.10;99.90;;;;;;5040705;28;19913;-68
2022/01/10 04:14:10;;;;;;;;;;;3.00;99.90;;;;;;5019378;28;20389;-70
2022/01/10 04:16:36;;;;;;;;;;;3.10;99.90;;;;;;5046452;28;19917;-70
2022/01/10 04:19:01;;;;;;;;;;;3.00;99.90;;;;;;5013857;28;19921;-69
2022/01/10 04:21:27;;;;;;;;;;;3.00;99.90;;;;;;5032209;28;19917;-69
2022/01/10 04:23:52;;;;;;;;;;;3.10;99.90;;;;;;5031592;28;19909;-69
2022/01/10 04:26:18;;;;;;;;;;;3.10;99.90;;;;;;5029478;28;20292;-71
2022/01/10 04:28:43;;;;;;;;;;;3.10;99.90;;;;;;5030734;28;19920;-69
2022/01/10 04:31:11;;;;;;;;;;;3.10;99.90;;;;;;5014595;28;19927;-71
2022/01/10 04:33:37;;;;;;;;;;;3.10;99.90;;;;;;5026936;28;20511;-70
2022/01/10 04:36:03;;;;;;;;;;;3.20;99.90;;;;;;5026795;28;20362;-69
2022/01/10 04:38:28;;;;;;;;;;;3.30;99.90;;;;;;5028742;28;20366;-70
2022/01/10 04:40:54;;;;;;;;;;;3.40;99.90;;;;;;5028469;28;19920;-70
2022/01/10 04:43:19;;;;;;;;;;;3.40;99.90;;;;;;5045607;28;20011;-69
2022/01/10 04:45:45;;;;;;;;;;;3.40;99.90;;;;;;5048195;28;20513;-72
2022/01/10 04:48:10;;;;;;;;;;;3.40;99.90;;;;;;5031519;28;19921;-69
2022/01/10 04:53:10;;;;;;;;;;;3.50;99.90;;;;;;5026778;28;20012;-70
2022/01/10 04:55:36;;;;;;;;;;;3.50;99.90;;;;;;5027277;28;20012;-70
2022/01/10 04:58:01;;;;;;;;;;;3.50;99.90;;;;;;5028535;28;19920;-69
2022/01/10 05:00:27;;;;;;;;;;;3.50;99.90;;;;;;5027271;28;20278;-70
2022/01/10 05:02:52;;;;;;;;;;;3.50;99.90;;;;;;5041303;28;20297;-70
2022/01/10 05:05:18;;;;;;;;;;;3.50;99.90;;;;;;5036524;28;20404;-72
2022/01/10 05:07:43;;;;;;;;;;;3.60;99.90;;;;;;5035613;28;19920;-69
2022/01/10 05:10:10;;;;;;;;;;;3.70;99.90;;;;;;5049165;28;19912;-69
2022/01/10 05:12:35;;;;;;;;;;;3.70;99.90;;;;;;5049989;28;19952;-68
2022/01/10 05:15:01;;;;;;;;;;;3.80;99.90;;;;;;5040664;28;19920;-71
2022/01/10 05:17:26;;;;;;;;;;;3.70;99.90;;;;;;5014982;28;19964;-69
2022/01/10 05:19:52;;;;;;;;;;;3.70;99.90;;;;;;5026203;28;19917;-70
2022/01/10 05:22:17;;;;;;;;;;;3.70;99.90;;;;;;5033799;28;20481;-71
2022/01/10 05:24:43;;;;;;;;;;;3.70;99.90;;;;;;5031110;28;19920;-69
2022/01/10 05:27:08;;;;;;;;;;;3.70;99.90;;;;;;5030462;28;19963;-71
2022/01/10 05:29:34;;;;;;;;;;;3.70;99.90;;;;;;5032316;28;19938;-69
2022/01/10 05:31:59;;;;;;;;;;;3.70;99.90;;;;;;5017129;28;19933;-68
2022/01/10 05:34:25;;;;;;;;;;;3.70;99.90;;;;;;5041943;28;19971;-73
2022/01/10 05:36:50;;;;;;;;;;;3.60;99.90;;;;;;5046685;28;19916;-71
2022/01/10 05:39:16;;;;;;;;;;;3.60;99.90;;;;;;5038511;28;19909;-69
2022/01/10 05:41:42;;;;;;;;;;;3.60;99.90;;;;;;5028448;28;19928;-69
2022/01/10 05:44:07;;;;;;;;;;;3.50;99.90;;;;;;5028104;28;19909;-68
2022/01/10 05:46:36;;;;;;;;;;;3.30;99.90;;;;;;5028960;28;19917;-70
2022/01/10 05:49:03;;;;;;;;;;;3.40;99.90;;;;;;5025438;28;19952;-68
2022/01/10 05:51:32;;;;;;;;;;;3.40;99.90;;;;;;5036365;28;19952;-70
2022/01/10 05:53:58;;;;;;;;;;;3.30;99.90;;;;;;5041241;28;19919;-69
2022/01/10 05:56:24;;;;;;;;;;;3.30;99.90;;;;;;5030275;28;20156;-69
2022/01/10 05:58:49;;;;;;;;;;;3.30;99.90;;;;;;5027085;28;19909;-70
2022/01/10 06:01:15;;;;;;;;;;;3.30;99.90;;;;;;5029665;28;20366;-70
2022/01/10 06:03:40;;;;;;;;;;;3.40;99.90;;;;;;5014491;28;19945;-69
2022/01/10 06:06:06;;;;;;;;;;;3.50;99.90;;;;;;5020676;28;19988;-68
2022/01/10 06:08:31;;;;;;;;;;;3.60;99.90;;;;;;5012412;28;20405;-69
2022/01/10 06:10:57;;;;;;;;;;;3.50;99.90;;;;;;5010045;28;20322;-69
2022/01/10 06:13:22;;;;;;;;;;;3.70;99.90;;;;;;5015096;28;20266;-69
2022/01/10 06:15:48;;;;;;;;;;;3.70;99.90;;;;;;5016183;28;19929;-70
2022/01/10 06:18:13;;;;;;;;;;;3.70;99.90;;;;;;4999830;28;19936;-70
2022/01/10 06:20:39;;;;;;;;;;;3.80;99.90;;;;;;5041130;28;19939;-70
2022/01/10 06:23:04;;;;;;;;;;;3.70;99.90;;;;;;5019686;28;19954;-69
2022/01/10 06:25:30;;;;;;;;;;;3.70;99.90;;;;;;5013451;28;20302;-70
2022/01/10 06:27:57;;;;;;;;;;;3.80;99.90;;;;;;5020783;28;19948;-69
2022/01/10 06:30:23;;;;;;;;;;;3.60;99.90;;;;;;5023731;28;19928;-69
2022/01/10 06:32:49;;;;;;;;;;;3.60;99.90;;;;;;5021123;28;19921;-71
2022/01/10 06:35:14;;;;;;;;;;;3.60;99.90;;;;;;5030003;28;19932;-69
2022/01/10 06:37:40;;;;;;;;;;;3.60;99.90;;;;;;5025939;28;19938;-69
2022/01/10 06:40:06;;;;;;;;;;;3.70;99.90;;;;;;5026904;28;19959;-70
2022/01/10 06:42:32;;;;;;;;;;;3.80;99.90;;;;;;5024919;28;19913;-71
2022/01/10 06:44:58;;;;;;;;;;;3.80;99.90;;;;;;5023628;28;20290;-70
2022/01/10 06:47:23;;;;;;;;;;;3.70;99.90;;;;;;5020195;28;19917;-69
2022/01/10 06:49:49;;;;;;;;;;;3.60;99.90;;;;;;5018891;28;19909;-68
2022/01/10 06:52:14;;;;;;;;;;;3.50;99.90;;;;;;5022933;28;19953;-69
2022/01/10 06:54:40;;;;;;;;;;;3.40;99.90;;;;;;5017731;28;19921;-69
2022/01/10 06:57:05;;;;;;;;;;;3.50;99.90;;;;;;5015545;28;20402;-70
2022/01/10 06:59:31;;;;;;;;;;;3.70;99.90;;;;;;5023250;28;19932;-70
2022/01/10 07:01:58;;;;;;;;;;;3.80;99.90;;;;;;5022641;28;20326;-71
2022/01/10 07:04:24;;;;;;;;;;;3.70;99.90;;;;;;5022544;28;19990;-70
2022/01/10 07:06:49;;;;;;;;;;;3.80;99.90;;;;;;5024497;28;20329;-70
2022/01/10 07:09:15;;;;;;;;;;;3.80;99.90;;;;;;5027888;28;19917;-71
2022/01/10 07:11:40;;;;;;;;;;;3.80;99.90;;;;;;5023843;28;19948;-69
2022/01/10 07:14:06;;;;;;;;;;;3.90;99.90;;;;;;5024831;28;19955;-67
2022/01/10 07:16:32;;;;;;;;;;;3.70;99.90;;;;;;5025756;28;19996;-69
2022/01/10 07:18:58;;;;;;;;;;;3.70;99.90;;;;;;5026173;28;20204;-70
2022/01/10 07:21:23;;;;;;;;;;;3.80;99.90;;;;;;5017695;28;19909;-71
2022/01/10 07:23:49;;;;;;;;;;;3.80;99.90;;;;;;5022254;28;20197;-69
2022/01/10 07:26:15;;;;;;;;;;;3.80;99.90;;;;;;5018070;28;19955;-68
2022/01/10 07:28:40;;;;;;;;;;;3.90;99.90;;;;;;5021259;28;20176;-69
2022/01/10 07:31:06;;;;;;;;;;;3.90;99.90;;;;;;5020218;28;20354;-70
2022/01/10 07:33:32;;;;;;;;;;;3.90;99.90;;;;;;5024270;28;20239;-69
2022/01/10 07:35:57;;;;;;;;;;;3.90;99.90;;;;;;5013090;28;19909;-70
2022/01/10 07:38:23;;;;;;;;;;;3.90;99.90;;;;;;5022755;28;19921;-69
2022/01/10 07:40:49;;;;;;;;;;;3.80;99.90;;;;;;5018256;28;20286;-69
2022/01/10 07:43:15;;;;;;;;;;;3.90;99.90;;;;;;5028134;28;19936;-69
2022/01/10 07:45:40;;;;;;;;;;;4.00;99.90;;;;;;5028864;28;20256;-69
2022/01/10 07:48:06;;;;;;;;;;;4.00;99.90;;;;;;5029663;28;19913;-68
2022/01/10 07:50:31;;;;;;;;;;;4.00;99.90;;;;;;5030534;28;20622;-72
2022/01/10 07:52:57;;;;;;;;;;;4.00;99.90;;;;;;5029272;28;19916;-74
2022/01/10 07:55:22;;;;;;;;;;;3.80;99.90;;;;;;5021364;28;19959;-68
2022/01/10 07:57:48;;;;;;;;;;;3.80;99.90;;;;;;5028755;28;20282;-72
2022/01/10 08:00:13;;;;;;;;;;;3.80;99.90;;;;;;5046898;28;19909;-70
2022/01/10 08:02:39;;;;;;;;;;;3.80;99.90;;;;;;5007842;28;20403;-69
2022/01/10 08:05:07;;;;;;;;;;;3.80;99.90;;;;;;5026454;28;19927;-69
2022/01/10 08:07:32;;;;;;;;;;;3.90;99.90;;;;;;5007570;28;19999;-70
2022/01/10 08:09:58;;;;;;;;;;;3.90;99.90;;;;;;5023420;28;19923;-69
2022/01/10 08:12:23;;;;;;;;;;;4.00;99.90;;;;;;5022690;28;19913;-69
2022/01/10 08:14:49;;;;;;;;;;;4.00;99.90;;;;;;5022310;28;20446;-69
2022/01/10 08:17:14;;;;;;;;;;;4.10;99.90;;;;;;5034959;28;20015;-69
2022/01/10 08:19:40;;;;;;;;;;;4.10;99.90;;;;;;5018123;28;19921;-70
2022/01/10 08:22:06;;;;;;;;;;;4.10;99.90;;;;;;5032650;28;20468;-69
2022/01/10 08:24:32;;;;;;;;;;;4.20;99.90;;;;;;5022432;28;19920;-69
2022/01/10 08:26:58;;;;;;;;;;;4.20;99.90;;;;;;5014223;28;19913;-68
2022/01/10 08:29:23;;;;;;;;;;;4.20;99.90;;;;;;5013928;28;19929;-69
2022/01/10 08:31:49;;;;;;;;;;;4.20;99.90;;;;;;5023484;28;19998;-69
2022/01/10 08:34:14;;;;;;;;;;;4.10;99.90;;;;;;5014975;28;19941;-69
2022/01/10 08:36:40;;;;;;;;;;;4.10;99.90;;;;;;5019473;28;19910;-67
2022/01/10 08:39:06;;;;;;;;;;;4.10;99.90;;;;;;5017958;28;19913;-74
2022/01/10 08:41:34;;;;;;;;;;;4.10;99.90;;;;;;5026227;28;19917;-72
2022/01/10 08:44:00;;;;;;;;;;;4.20;99.90;;;;;;5035045;28;19909;-72
2022/01/10 08:46:26;;;;;;;;;;;4.20;99.90;;;;;;5029115;28;20292;-78
2022/01/10 08:48:52;;;;;;;;;;;4.20;99.90;;;;;;5027095;28;20136;-70
2022/01/10 08:51:18;;;;;;;;;;;4.40;99.90;;;;;;5026277;28;20123;-69
2022/01/10 08:53:43;;;;;;;;;;;4.30;99.90;;;;;;5026953;28;20452;-69
2022/01/10 08:56:09;;;;;;;;;;;4.30;99.90;;;;;;5025943;28;20447;-70
2022/01/10 08:58:34;;;;;;;;;;;4.40;99.90;;;;;;5028584;28;20434;-69
2022/01/10 09:01:00;;;;;;;;;;;4.60;99.90;;;;;;5023401;28;19913;-69
2022/01/10 09:03:26;;;;;;;;;;;4.60;99.90;;;;;;5023014;28;19909;-71
2022/01/10 09:05:54;;;;;;;;;;;4.70;99.90;;;;;;5023577;28;19917;-72
2022/01/10 09:08:19;;;;;;;;;;;4.60;99.90;;;;;;5034770;28;19985;-69
2022/01/10 09:10:45;;;;;;;;;;;4.70;99.90;;;;;;5019090;28;20234;-71
2022/01/10 09:13:10;;;;;;;;;;;4.70;99.90;;;;;;5021424;28;19909;-71
2022/01/10 09:15:37;;;;;;;;;;;4.70;99.90;;;;;;5029594;28;19967;-71
2022/01/10 09:18:03;;;;;;;;;;;4.70;99.90;;;;;;5022459;28;19938;-69
2022/01/10 09:20:29;;;;;;;;;;;4.60;99.90;;;;;;5022599;28;19919;-74
2022/01/10 09:22:54;;;;;;;;;;;4.70;99.90;;;;;;5019188;28;19917;-74
2022/01/10 09:25:20;;;;;;;;;;;4.70;99.90;;;;;;5013256;28;20095;-73
2022/01/10 09:27:46;;;;;;;;;;;4.60;99.90;;;;;;5016898;28;19921;-70
2022/01/10 09:30:12;;;;;;;;;;;4.70;99.90;;;;;;5009612;28;19944;-71
2022/01/10 09:32:38;;;;;;;;;;;4.70;99.90;;;;;;5012742;28;19917;-71
2022/01/10 09:35:04;;;;;;;;;;;4.80;99.90;;;;;;5031460;28;19945;-69
2022/01/10 09:37:29;;;;;;;;;;;4.80;99.90;;;;;;5020976;28;19993;-70
2022/01/10 09:39:55;;;;;;;;;;;4.90;99.90;;;;;;5022632;28;19945;-69
2022/01/10 09:42:21;;;;;;;;;;;5.00;99.90;;;;;;5022937;28;19909;-68
2022/01/10 09:44:46;;;;;;;;;;;5.00;99.90;;;;;;5020127;28;20441;-74
2022/01/10 09:47:12;;;;;;;;;;;5.10;99.90;;;;;;5014821;28;20206;-71
2022/01/10 09:49:37;;;;;;;;;;;5.00;99.90;;;;;;5018964;28;20405;-68
2022/01/10 09:52:03;;;;;;;;;;;5.00;99.90;;;;;;5008022;28;19910;-71
2022/01/10 09:54:29;;;;;;;;;;;5.00;99.90;;;;;;5011514;28;19940;-68
2022/01/10 09:56:55;;;;;;;;;;;5.00;99.90;;;;;;5018337;28;19957;-70
2022/01/10 09:59:21;;;;;;;;;;;5.00;99.90;;;;;;5019277;28;20107;-69
2022/01/10 10:01:49;;;;;;;;;;;5.00;99.90;;;;;;5010724;28;20442;-68
2022/01/10 10:04:15;;;;;;;;;;;5.00;99.90;;;;;;5018993;28;19974;-68
2022/01/10 10:06:41;;;;;;;;;;;4.90;99.90;;;;;;5023339;28;19913;-69
2022/01/10 10:09:08;;;;;;;;;;;4.90;99.90;;;;;;5020879;28;19923;-68
2022/01/10 10:11:39;;;;;;;;;;;4.90;99.90;;;;;;5022189;28;20271;-67
2022/01/10 10:14:05;;;;;;;;;;;4.90;99.90;;;;;;5013047;28;20004;-71
2022/01/10 10:16:31;;;;;;;;;;;4.80;99.90;;;;;;5019567;28;19919;-68
2022/01/10 10:18:58;;;;;;;;;;;4.80;99.90;;;;;;5028911;28;19909;-67
2022/01/10 10:21:23;;;;;;;;;;;5.00;99.90;;;;;;5022498;28;19927;-71
2022/01/10 10:23:50;;;;;;;;;;;5.00;99.90;;;;;;5023090;28;19913;-67
2022/01/10 10:26:21;;;;;;;;;;;5.00;99.90;;;;;;5020565;28;19913;-70
2022/01/10 10:28:47;;;;;;;;;;;4.90;99.90;;;;;;5017295;28;19917;-69
2022/01/10 10:31:14;;;;;;;;;;;5.10;99.90;;;;;;5017603;28;19918;-69
2022/01/10 10:33:46;;;;;;;;;;;5.20;99.90;;;;;;5020559;28;19910;-69
2022/01/10 10:36:12;;;;;;;;;;;5.30;99.90;;;;;;5018052;28;19921;-69
2022/01/10 10:38:37;;;;;;;;;;;5.40;99.90;;;;;;5014919;28;19920;-68
2022/01/10 10:41:04;;;;;;;;;;;5.40;99.90;;;;;;5011495;28;20046;-68
2022/01/10 10:43:31;;;;;;;;;;;5.30;99.90;;;;;;5023089;28;20016;-68
2022/01/10 10:45:59;;;;;;;;;;;5.30;99.90;;;;;;5038345;28;20164;-68
2022/01/10 10:48:24;;;;;;;;;;;5.20;99.90;;;;;;5043927;28;20332;-72
2022/01/10 10:50:50;;;;;;;;;;;5.30;99.90;;;;;;5044684;28;19995;-72
2022/01/10 10:53:15;;;;;;;;;;;5.30;99.90;;;;;;5044507;28;20062;-69
2022/01/10 10:55:42;;;;;;;;;;;5.20;99.90;;;;;;5027488;28;20370;-71
2022/01/10 10:58:08;;;;;;;;;;;5.30;99.90;;;;;;5026906;28;19913;-70
2022/01/10 11:00:34;;;;;;;;;;;5.40;99.90;;;;;;5045266;28;19952;-68
2022/01/10 11:03:00;;;;;;;;;;;5.40;99.90;;;;;;5039421;28;19913;-71
2022/01/10 11:05:26;;;;;;;;;;;5.40;99.90;;;;;;5024752;28;19920;-70
2022/01/10 11:07:51;;;;;;;;;;;5.50;99.90;;;;;;5026577;28;19940;-68
2022/01/10 11:10:18;;;;;;;;;;;5.40;99.90;;;;;;5028343;28;20392;-68
2022/01/10 11:12:47;;;;;;;;;;;5.50;99.90;;;;;;5024171;28;19913;-70
2022/01/10 11:15:13;;;;;;;;;;;5.60;99.90;;;;;;5045447;28;19917;-69
2022/01/10 11:17:42;;;;;;;;;;;5.60;99.90;;;;;;5049691;28;19989;-69
2022/01/10 11:20:08;;;;;;;;;;;5.50;99.90;;;;;;5050038;28;19913;-70
2022/01/10 11:22:35;;;;;;;;;;;5.50;99.90;;;;;;5044194;28;19913;-69
2022/01/10 11:25:02;;;;;;;;;;;5.50;99.90;;;;;;5018144;28;19917;-69
2022/01/10 11:27:31;;;;;;;;;;;5.60;99.90;;;;;;5017774;28;19914;-73
2022/01/10 11:29:57;;;;;;;;;;;5.60;99.90;;;;;;5028980;28;19960;-71
2022/01/10 11:32:41;;;;;;;;;;;5.60;99.90;;;;;;5029676;28;20396;-70
2022/01/10 11:35:09;;;;;;;;;;;5.60;99.90;;;;;;5027947;28;20047;-69
2022/01/10 11:37:35;;;;;;;;;;;5.50;99.90;;;;;;5030730;28;20356;-70
2022/01/10 11:40:00;;;;;;;;;;;5.60;99.90;;;;;;5028700;28;19920;-71
2022/01/10 11:42:26;;;;;;;;;;;5.60;99.90;;;;;;5028151;28;20004;-71
2022/01/10 11:45:10;;;;;;;;;;;5.70;99.90;;;;;;5025346;28;19913;-69
2022/01/10 11:47:54;;;;;;;;;;;5.70;99.90;;;;;;5026950;28;20012;-70
2022/01/10 11:50:27;;;;;;;;;;;5.80;99.90;;;;;;5029849;28;19909;-69
2022/01/10 11:52:56;;;;;;;;;;;5.80;99.90;;;;;;5032538;28;20406;-70
2022/01/10 11:55:38;;;;;;;;;;;5.80;99.90;;;;;;5034942;28;19909;-68
2022/01/10 11:58:14;;;;;;;;;;;5.80;99.90;;;;;;5031068;28;20020;-66
2022/01/10 12:00:40;;;;;;;;;;;5.80;99.90;;;;;;5032369;28;19933;-69
2022/01/10 12:03:05;;;;;;;;;;;5.80;99.90;;;;;;5034801;28;19916;-69
2022/01/10 12:05:31;;;;;;;;;;;5.90;99.90;;;;;;5034781;28;19909;-70
2022/01/10 12:07:56;;;;;;;;;;;5.90;99.90;;;;;;5032943;28;19970;-68
2022/01/10 12:10:22;;;;;;;;;;;6.00;99.90;;;;;;5034993;28;19920;-69
2022/01/10 12:12:51;;;;;;;;;;;6.10;99.90;;;;;;5039581;28;19936;-70
2022/01/10 12:15:16;;;;;;;;;;;6.10;99.90;;;;;;5041509;28;19913;-69
2022/01/10 12:17:42;;;;;;;;;;;6.20;99.90;;;;;;5044316;28;20384;-69
2022/01/10 12:20:08;;;;;;;;;;;6.10;99.90;;;;;;5041495;28;20289;-69
2022/01/10 12:22:34;;;;;;;;;;;6.20;99.90;;;;;;5038900;28;19968;-68
2022/01/10 12:25:00;;;;;;;;;;;6.10;99.90;;;;;;5034671;28;19909;-70
2022/01/10 12:27:26;;;;;;;;;;;6.20;99.90;;;;;;5032243;28;19920;-70
2022/01/10 12:29:52;;;;;;;;;;;6.30;99.90;;;;;;5041325;28;19917;-71
2022/01/10 12:32:17;;;;;;;;;;;6.30;99.90;;;;;;5042520;28;19910;-70
2022/01/10 12:34:45;;;;;;;;;;;6.30;99.90;;;;;;5008714;28;19987;-69
2022/01/10 12:37:10;;;;;;;;;;;6.50;99.90;;;;;;5009496;28;19913;-69
2022/01/10 12:39:37;;;;;;;;;;;6.50;99.90;;;;;;5026485;28;19910;-70
2022/01/10 12:42:03;;;;;;;;;;;6.50;99.90;;;;;;5010192;28;19996;-70
2022/01/10 12:44:29;;;;;;;;;;;6.80;99.90;;;;;;5009401;28;19959;-69
2022/01/10 12:46:55;;;;;;;;;;;7.20;99.90;;;;;;5029131;28;20012;-71
2022/01/10 12:49:20;;;;;;;;;;;7.90;99.90;;;;;;5027577;28;19956;-70
2022/01/10 12:51:53;;;;;;;;;;;8.20;99.90;;;;;;5028197;28;19913;-69
2022/01/10 12:54:19;;;;;;;;;;;8.40;99.90;;;;;;5028430;28;19963;-71
2022/01/10 12:56:46;;;;;;;;;;;8.20;99.90;;;;;;5028725;28;20018;-71
2022/01/10 12:59:15;;;;;;;;;;;7.90;99.90;;;;;;5027998;28;20394;-71
2022/01/10 13:01:41;;;;;;;;;;;7.80;99.90;;;;;;5029418;28;20000;-69
2022/01/10 13:04:07;;;;;;;;;;;7.80;99.90;;;;;;5027744;28;20643;-69
2022/01/10 13:06:38;;;;;;;;;;;7.80;99.90;;;;;;5028871;28;19920;-72
2022/01/10 13:09:04;;;;;;;;;;;7.80;99.90;;;;;;5034171;28;19931;-71
2022/01/10 13:11:41;;;;;;;;;;;7.70;99.90;;;;;;5025550;28;19932;-69
2022/01/10 13:14:08;;;;;;;;;;;7.60;99.90;;;;;;5030564;28;20004;-69
2022/01/10 13:16:34;;;;;;;;;;;7.50;99.90;;;;;;5030290;28;20507;-72
2022/01/10 13:19:01;;;;;;;;;;;7.50;99.90;;;;;;5027703;28;20312;-71
2022/01/10 13:21:27;;;;;;;;;;;7.50;99.90;;;;;;5010965;28;20015;-69
2022/01/10 13:24:13;;;;;;;;;;;7.40;99.90;;;;;;5027249;28;19956;-72
2022/01/10 13:26:58;;;;;;;;;;;7.70;99.90;;;;;;5019789;28;19909;-74
2022/01/10 13:29:31;;;;;;;;;;;8.30;99.90;;;;;;5033866;28;19931;-69
2022/01/10 13:31:56;;;;;;;;;;;8.20;99.90;;;;;;5014951;28;20211;-69
2022/01/10 13:34:25;;;;;;;;;;;8.10;99.90;;;;;;5010875;28;20434;-72
2022/01/10 13:36:52;;;;;;;;;;;8.00;99.90;;;;;;5019073;28;20213;-70
2022/01/10 13:39:19;;;;;;;;;;;8.20;99.90;;;;;;5026380;28;20385;-70
2022/01/10 13:42:01;;;;;;;;;;;8.20;99.90;;;;;;5009340;28;20005;-69
2022/01/10 13:44:26;;;;;;;;;;;7.90;99.90;;;;;;5026392;28;19913;-71
2022/01/10 13:47:05;;;;;;;;;;;7.50;99.90;;;;;;5026702;28;19916;-70
2022/01/10 13:49:33;;;;;;;;;;;7.40;99.90;;;;;;5027883;28;19921;-69
2022/01/10 13:52:08;;;;;;;;;;;7.10;99.90;;;;;;5020334;28;20004;-70
2022/01/10 13:54:33;;;;;;;;;;;7.10;99.90;;;;;;5014690;28;20028;-70
2022/01/10 13:57:12;;;;;;;;;;;7.00;99.90;;;;;;5009865;28;20028;-70
2022/01/10 13:59:38;;;;;;;;;;;6.80;99.90;;;;;;5005845;28;19917;-69
2022/01/10 14:02:03;;;;;;;;;;;6.80;99.90;;;;;;5006381;28;19967;-71
2022/01/10 14:04:34;;;;;;;;;;;6.90;99.90;;;;;;5009434;28;20084;-70
2022/01/10 14:07:09;;;;;;;;;;;6.80;99.90;;;;;;5010461;28;19990;-71
2022/01/10 14:09:35;;;;;;;;;;;6.80;99.90;;;;;;5015549;28;19923;-74
2022/01/10 14:12:05;;;;;;;;;;;6.80;99.90;;;;;;4997447;28;20007;-69
2022/01/10 14:14:30;;;;;;;;;;;6.80;99.90;;;;;;5011128;28;19905;-69
2022/01/10 14:16:57;;;;;;;;;;;6.80;99.90;;;;;;5013603;28;19920;-70
2022/01/10 14:19:22;;;;;;;;;;;6.80;99.90;;;;;;5020119;28;19948;-70
2022/01/10 14:21:48;;;;;;;;;;;6.80;99.90;;;;;;5015110;28;19909;-69
2022/01/10 14:24:17;;;;;;;;;;;6.70;99.90;;;;;;5015939;28;19909;-67
2022/01/10 14:26:43;;;;;;;;;;;6.70;99.90;;;;;;5017924;28;20106;-69
2022/01/10 14:29:08;;;;;;;;;;;6.70;99.90;;;;;;5009908;28;19917;-69
2022/01/10 14:31:34;;;;;;;;;;;6.70;99.90;;;;;;4997619;28;19909;-69
2022/01/10 14:33:59;;;;;;;;;;;6.70;99.90;;;;;;5007363;28;20000;-71